Time;durP1;ratioP1;P1;durP2;ratioP2;P2;SDS_P1;SDS_P2;PMS_P1;PMS_P2;Temp;Humidity;BMP_temperature;BMP_pressure;BME280_temperature;BME280_humidity;BME280_pressure;Samples;Min_cycle;Max_cycle;Signal;HPM_P1;HPM_P2
2023/07/31 00:00:27;;;;;;;43.10;9.52;;;;;;;-146.27;100.00;82177.28;5051119;28;20088;-69
2023/07/31 00:02:52;;;;;;;36.35;9.05;;;;;;;-146.27;100.00;82195.38;5061428;28;20044;-69
2023/07/31 00:05:18;;;;;;;28.63;7.38;;;;;;;-146.27;100.00;82185.31;5059578;28;20029;-69
2023/07/31 00:07:43;;;;;;;45.55;7.20;;;;;;;-146.27;100.00;82149.16;5063793;28;20054;-69
2023/07/31 00:10:09;;;;;;;29.52;7.20;;;;;;;-146.27;100.00;82221.47;5051044;28;20098;-69
2023/07/31 00:12:34;;;;;;;27.67;7.85;;;;;;;-146.27;100.00;82165.22;5053376;28;20045;-69
2023/07/31 00:15:00;;;;;;;38.90;8.57;;;;;;;-146.27;100.00;82163.22;5066643;28;20546;-70
2023/07/31 00:17:25;;;;;;;31.70;7.72;;;;;;;-146.27;100.00;82151.16;5049304;28;20036;-69
2023/07/31 00:19:50;;;;;;;51.85;8.98;;;;;;;-146.27;100.00;82161.22;5051157;28;20025;-69
2023/07/31 00:22:16;;;;;;;44.78;8.93;;;;;;;-146.27;100.00;82129.06;5064121;28;20028;-69
2023/07/31 00:24:41;;;;;;;45.60;8.52;;;;;;;-146.27;100.00;82147.16;5050859;28;20020;-68
2023/07/31 00:27:07;;;;;;;43.08;8.85;;;;;;;-146.27;100.00;82143.13;5050676;28;20040;-69
2023/07/31 00:29:32;;;;;;;46.65;9.15;;;;;;;-146.27;100.00;82135.09;5050903;28;20558;-69
2023/07/31 00:31:58;;;;;;;40.90;8.30;;;;;;;-146.27;100.00;82161.22;5063657;28;20028;-69
2023/07/31 00:34:23;;;;;;;37.05;7.97;;;;;;;-146.27;100.00;82145.16;5050141;28;20488;-69
2023/07/31 00:36:48;;;;;;;39.50;8.38;;;;;;;-146.27;100.00;82159.22;5050965;28;20058;-69
2023/07/31 00:39:14;;;;;;;34.72;6.95;;;;;;;-146.27;100.00;82189.34;5052501;28;20091;-68
2023/07/31 00:41:39;;;;;;;40.08;7.43;;;;;;;-146.27;100.00;82179.28;5050039;28;20116;-69
2023/07/31 00:44:04;;;;;;;37.58;7.97;;;;;;;-146.27;100.00;82183.31;5062904;28;20055;-69
2023/07/31 00:46:30;;;;;;;40.40;8.02;;;;;;;-146.27;100.00;82195.38;5050424;28;20455;-68
2023/07/31 00:48:56;;;;;;;44.40;8.63;;;;;;;-146.27;100.00;82247.59;5049999;28;20021;-69
2023/07/31 00:51:22;;;;;;;42.55;7.65;;;;;;;-146.27;100.00;82193.34;5057415;28;20039;-68
2023/07/31 00:53:47;;;;;;;34.35;8.38;;;;;;;-146.27;100.00;82249.59;5064258;28;20480;-69
2023/07/31 00:56:13;;;;;;;32.90;7.43;;;;;;;-146.27;100.00;82215.44;5059323;28;20036;-69
2023/07/31 00:58:39;;;;;;;43.83;8.35;;;;;;;-146.27;100.00;82179.28;5049515;28;20434;-69
2023/07/31 01:01:04;;;;;;;36.00;7.38;;;;;;;-146.27;100.00;82177.28;5061107;28;20021;-68
2023/07/31 01:03:30;;;;;;;45.17;9.00;;;;;;;-146.27;100.00;82247.59;5053401;28;20031;-69
2023/07/31 01:06:06;;;;;;;48.42;9.45;;;;;;;-146.27;100.00;82247.59;5065835;28;20039;-69
2023/07/31 01:09:00;;;;;;;43.88;8.77;;;;;;;-146.27;100.00;82231.53;5068064;28;20517;-69
2023/07/31 01:11:30;;;;;;;36.35;8.43;;;;;;;-146.27;100.00;82211.44;5054828;28;20486;-69
2023/07/31 01:13:56;;;;;;;36.05;7.03;;;;;;;-146.27;100.00;82265.66;5053461;28;20587;-69
2023/07/31 01:16:22;;;;;;;38.72;8.35;;;;;;;-146.27;100.00;82233.53;5048899;28;20025;-68
2023/07/31 01:18:47;;;;;;;38.33;8.43;;;;;;;-146.27;100.00;82219.47;5050081;28;20378;-69
2023/07/31 01:21:45;;;;;;;43.40;8.88;;;;;;;-146.27;100.00;82235.53;5049947;28;20102;-69
2023/07/31 01:24:20;;;;;;;39.05;7.80;;;;;;;-146.27;100.00;82263.66;5059256;28;20497;-69
2023/07/31 01:26:53;;;;;;;39.78;8.07;;;;;;;-146.27;100.00;82235.53;5056894;28;20021;-70
2023/07/31 01:29:25;;;;;;;41.60;8.55;;;;;;;-146.27;100.00;82285.75;5064522;28;20078;-69
2023/07/31 01:31:54;;;;;;;40.58;8.30;;;;;;;-146.27;100.00;82261.66;5049680;28;20024;-69
2023/07/31 01:34:21;;;;;;;42.47;10.27;;;;;;;-146.27;100.00;82251.59;5049356;28;20029;-69
2023/07/31 01:36:46;;;;;;;46.17;9.10;;;;;;;-146.27;100.00;82255.63;5048812;28;20033;-68
2023/07/31 01:39:12;;;;;;;52.47;8.70;;;;;;;-146.27;100.00;82253.63;5052858;28;20559;-68
2023/07/31 01:41:37;;;;;;;36.35;7.47;;;;;;;-146.27;100.00;82239.56;5065231;28;20107;-71
2023/07/31 01:44:02;;;;;;;44.58;9.10;;;;;;;-146.27;100.00;82303.84;5050212;28;20067;-69
2023/07/31 01:46:28;;;;;;;49.85;9.15;;;;;;;-146.27;100.00;82267.69;5057113;28;20077;-69
2023/07/31 01:48:54;;;;;;;34.83;7.43;;;;;;;-146.27;100.00;82215.44;5054277;28;20037;-70
2023/07/31 01:51:20;;;;;;;32.95;8.30;;;;;;;-146.27;100.00;82235.53;5053865;28;20052;-69
2023/07/31 01:53:45;;;;;;;40.53;9.30;;;;;;;-146.27;100.00;82257.63;5053505;28;20055;-68
2023/07/31 01:56:10;;;;;;;35.85;7.80;;;;;;;-146.27;100.00;82277.72;5053865;28;20064;-69
2023/07/31 01:58:36;;;;;;;43.78;7.63;;;;;;;-146.27;100.00;82253.63;5063931;28;20029;-69
2023/07/31 02:01:01;;;;;;;46.45;8.55;;;;;;;-146.27;100.00;82239.56;5056704;28;20444;-69
2023/07/31 02:03:26;;;;;;;40.72;8.25;;;;;;;-146.27;100.00;82223.47;5054778;28;20424;-69
2023/07/31 02:05:54;;;;;;;35.97;7.22;;;;;;;-146.27;100.00;82225.50;5070365;28;20073;-69
2023/07/31 02:08:19;;;;;;;39.58;7.53;;;;;;;-146.27;100.00;82245.59;5058775;28;20021;-69
2023/07/31 02:10:44;;;;;;;40.30;7.43;;;;;;;-146.27;100.00;82257.63;5062536;28;20048;-69
2023/07/31 02:13:10;;;;;;;39.92;7.45;;;;;;;-146.27;100.00;82239.56;5055559;28;20040;-69
2023/07/31 02:15:37;;;;;;;38.15;7.63;;;;;;;-146.27;100.00;82251.59;5053518;28;20028;-69
2023/07/31 02:18:02;;;;;;;29.75;6.47;;;;;;;-146.27;100.00;82235.53;5052773;28;20439;-69
2023/07/31 02:20:27;;;;;;;32.65;8.23;;;;;;;-146.27;100.00;82197.38;5064852;28;20100;-70
2023/07/31 02:22:53;;;;;;;38.72;7.78;;;;;;;-146.27;100.00;82235.53;5065157;28;20148;-69
2023/07/31 02:25:18;;;;;;;34.53;9.18;;;;;;;-146.27;100.00;82175.28;5053313;28;20487;-69
2023/07/31 02:27:43;;;;;;;44.00;8.45;;;;;;;-146.27;100.00;82191.34;5052531;28;20618;-69
2023/07/31 02:30:09;;;;;;;42.53;9.88;;;;;;;-146.27;100.00;82241.56;5051882;28;20025;-70
2023/07/31 02:32:35;;;;;;;33.83;8.57;;;;;;;-146.27;100.00;82159.22;5052093;28;20419;-70
2023/07/31 02:35:00;;;;;;;36.17;8.57;;;;;;;-146.27;100.00;82213.44;5066917;28;20459;-70
2023/07/31 02:37:28;;;;;;;52.15;8.55;;;;;;;-146.27;100.00;82253.63;5063518;28;20056;-70
2023/07/31 02:39:53;;;;;;;36.90;8.30;;;;;;;-146.27;100.00;82201.38;5070750;28;20028;-70
2023/07/31 02:42:19;;;;;;;35.65;7.70;;;;;;;-146.27;100.00;82219.47;5067559;28;20171;-69
2023/07/31 02:44:44;;;;;;;34.38;7.90;;;;;;;-146.27;100.00;82217.47;5053143;28;20082;-69
2023/07/31 02:47:09;;;;;;;37.70;9.35;;;;;;;-146.27;100.00;82235.53;5051972;28;20021;-68
2023/07/31 02:49:35;;;;;;;31.20;6.93;;;;;;;-146.27;100.00;82243.56;5052588;28;20044;-69
2023/07/31 02:52:00;;;;;;;32.00;8.25;;;;;;;-146.27;100.00;82187.31;5051837;28;20086;-70
2023/07/31 02:54:26;;;;;;;28.90;6.63;;;;;;;-146.27;100.00;82251.59;5067230;28;20062;-69
2023/07/31 02:56:51;;;;;;;25.08;6.35;;;;;;;-146.27;100.00;82197.38;5069795;28;20024;-70
2023/07/31 02:59:17;;;;;;;25.67;6.55;;;;;;;-146.27;100.00;82217.47;5052394;28;20029;-70
2023/07/31 03:01:43;;;;;;;31.67;6.85;;;;;;;-146.27;100.00;82175.28;5052545;28;20021;-69
2023/07/31 03:04:08;;;;;;;31.15;6.72;;;;;;;-146.27;100.00;82187.31;5060943;28;20590;-68
2023/07/31 03:06:33;;;;;;;24.55;6.00;;;;;;;-146.27;100.00;82231.53;5060636;28;20025;-70
2023/07/31 03:08:59;;;;;;;29.67;8.32;;;;;;;-146.27;100.00;82219.47;5051841;28;20036;-70
2023/07/31 03:11:24;;;;;;;39.17;7.88;;;;;;;-146.27;100.00;82185.31;5052176;28;20128;-70
2023/07/31 03:13:49;;;;;;;35.80;7.57;;;;;;;-146.27;100.00;82199.38;5051913;28;20417;-68
2023/07/31 03:16:15;;;;;;;32.85;6.43;;;;;;;-146.27;100.00;82155.19;5053353;28;20170;-68
2023/07/31 03:18:40;;;;;;;29.00;6.13;;;;;;;-146.27;100.00;82199.38;5051877;28;20056;-69
2023/07/31 03:21:06;;;;;;;36.00;6.90;;;;;;;-146.27;100.00;82203.41;5052296;28;20384;-69
2023/07/31 03:23:31;;;;;;;33.90;8.52;;;;;;;-146.27;100.00;82189.34;5060318;28;20115;-68
2023/07/31 03:25:58;;;;;;;41.08;8.00;;;;;;;-146.27;100.00;82207.41;5064598;28;20040;-69
2023/07/31 03:28:24;;;;;;;31.85;7.40;;;;;;;-146.27;100.00;82183.31;5064967;28;20626;-68
2023/07/31 03:30:49;;;;;;;36.63;8.25;;;;;;;-146.27;100.00;82187.31;5067569;28;20028;-68
2023/07/31 03:33:15;;;;;;;22.50;6.18;;;;;;;-146.27;100.00;82187.31;5062762;28;20032;-69
2023/07/31 03:35:40;;;;;;;35.90;7.22;;;;;;;-146.27;100.00;82207.41;5070018;28;20413;-68
2023/07/31 03:38:05;;;;;;;36.92;7.68;;;;;;;-146.27;100.00;82227.50;5057875;28;20029;-70
2023/07/31 03:40:31;;;;;;;33.22;7.40;;;;;;;-146.27;100.00;82235.53;5059770;28;20271;-69
2023/07/31 03:42:56;;;;;;;26.65;6.82;;;;;;;-146.27;100.00;82235.53;5057331;28;20039;-69
2023/07/31 03:45:21;;;;;;;28.45;6.50;;;;;;;-146.27;100.00;82155.19;5071452;28;20062;-69
2023/07/31 03:47:47;;;;;;;35.22;6.18;;;;;;;-146.27;100.00;82179.28;5055219;28;20029;-68
2023/07/31 03:50:12;;;;;;;36.30;8.50;;;;;;;-146.27;100.00;82173.28;5053389;28;20024;-70
2023/07/31 03:52:38;;;;;;;32.65;6.90;;;;;;;-146.27;100.00;82179.28;5055450;28;20073;-70
2023/07/31 03:55:03;;;;;;;27.85;6.20;;;;;;;-146.27;100.00;82171.25;5051683;28;20040;-69
2023/07/31 03:57:29;;;;;;;30.92;6.45;;;;;;;-146.27;100.00;82151.16;5053942;28;20052;-69
2023/07/31 03:59:54;;;;;;;22.88;5.53;;;;;;;-146.27;100.00;82187.31;5064009;28;20055;-70
2023/07/31 04:02:19;;;;;;;17.83;5.20;;;;;;;-146.27;100.00;82267.69;5052475;28;20024;-69
2023/07/31 04:04:45;;;;;;;19.23;4.60;;;;;;;-146.27;100.00;82219.47;5059490;28;20431;-70
2023/07/31 04:07:11;;;;;;;18.15;5.03;;;;;;;-146.27;100.00;82231.53;5050962;28;20049;-70
2023/07/31 04:09:36;;;;;;;15.98;4.60;;;;;;;-146.27;100.00;82273.72;5068525;28;20494;-69
2023/07/31 04:12:01;;;;;;;14.90;3.60;;;;;;;-146.27;100.00;82249.59;5068190;28;20040;-70
2023/07/31 04:14:27;;;;;;;12.68;3.75;;;;;;;-146.27;100.00;82219.47;5061362;28;20028;-69
2023/07/31 04:16:52;;;;;;;15.38;3.70;;;;;;;-146.27;100.00;82267.69;5070550;28;20103;-69
2023/07/31 04:19:17;;;;;;;12.48;3.30;;;;;;;-146.27;100.00;82245.59;5052628;28;20021;-69
2023/07/31 04:21:43;;;;;;;13.38;3.63;;;;;;;-146.27;100.00;82259.66;5050634;28;20024;-69
2023/07/31 04:24:09;;;;;;;15.98;3.55;;;;;;;-146.27;100.00;82223.47;5050629;28;20131;-69
2023/07/31 04:26:34;;;;;;;11.38;3.05;;;;;;;-146.27;100.00;82253.63;5051489;28;20025;-68
2023/07/31 04:28:59;;;;;;;7.22;2.70;;;;;;;-146.27;100.00;82239.56;5054623;28;20024;-69
2023/07/31 04:31:25;;;;;;;8.57;2.58;;;;;;;-146.27;100.00;82265.66;5050212;28;21815;-69
2023/07/31 04:33:50;;;;;;;10.88;2.58;;;;;;;-146.27;100.00;82283.75;5068662;28;20071;-69
2023/07/31 04:36:15;;;;;;;9.88;2.70;;;;;;;-146.27;100.00;82295.81;5066241;28;20031;-69
2023/07/31 04:38:41;;;;;;;7.13;1.90;;;;;;;-146.27;100.00;82271.69;5053897;28;20096;-69
2023/07/31 04:41:06;;;;;;;11.43;2.30;;;;;;;-146.27;100.00;82259.66;5050861;28;20024;-69
2023/07/31 04:43:32;;;;;;;5.28;1.90;;;;;;;-146.27;100.00;82293.78;5064783;28;20047;-68
2023/07/31 04:45:57;;;;;;;7.90;2.90;;;;;;;-146.27;100.00;82283.75;5051190;28;20029;-69
2023/07/31 04:48:23;;;;;;;6.97;2.45;;;;;;;-146.27;100.00;82291.78;5051444;28;20239;-68
2023/07/31 04:50:49;;;;;;;7.75;2.63;;;;;;;-146.27;100.00;82267.69;5060182;28;20035;-69
2023/07/31 04:53:14;;;;;;;8.20;3.15;;;;;;;-146.27;100.00;82378.16;5060509;28;20155;-69
2023/07/31 04:55:40;;;;;;;5.50;2.70;;;;;;;-146.27;100.00;82337.97;5061020;28;20130;-69
2023/07/31 04:58:05;;;;;;;4.47;2.55;;;;;;;-146.27;100.00;82378.16;5062176;28;20016;-68
2023/07/31 05:00:30;;;;;;;9.75;3.47;;;;;;;-146.27;100.00;82372.13;5074868;28;20027;-69
2023/07/31 05:02:56;;;;;;;9.93;3.33;;;;;;;-146.27;100.00;82380.16;5059855;28;20032;-69
2023/07/31 05:05:21;;;;;;;8.30;3.40;;;;;;;-146.27;100.00;82380.16;5063237;28;20028;-69
2023/07/31 05:07:47;;;;;;;7.93;3.63;;;;;;;-146.27;100.00;82442.44;5053424;28;20025;-68
2023/07/31 05:10:12;;;;;;;8.05;4.25;;;;;;;-146.27;100.00;82404.28;5056242;28;20067;-69
2023/07/31 05:12:37;;;;;;;8.77;3.58;;;;;;;-146.27;100.00;82428.38;5068711;28;20061;-68
2023/07/31 05:15:03;;;;;;;13.88;4.07;;;;;;;-146.27;100.00;82440.44;5049777;28;20136;-68
2023/07/31 05:17:28;;;;;;;6.68;4.00;;;;;;;-146.27;100.00;82368.13;5049091;28;20051;-69
2023/07/31 05:19:54;;;;;;;11.20;4.05;;;;;;;-146.27;100.00;82386.19;5060199;28;20039;-68
2023/07/31 05:22:19;;;;;;;12.02;4.15;;;;;;;-146.27;100.00;82440.44;5048970;28;20021;-68
2023/07/31 05:24:45;;;;;;;10.00;4.13;;;;;;;-146.27;100.00;82428.38;5050109;28;20052;-68
2023/07/31 05:27:10;;;;;;;12.48;4.60;;;;;;;-146.27;100.00;82394.22;5049170;28;20040;-68
2023/07/31 05:29:36;;;;;;;11.20;4.18;;;;;;;-146.27;100.00;82392.22;5053514;28;20025;-67
2023/07/31 05:32:01;;;;;;;13.90;4.53;;;;;;;-146.27;100.00;82428.38;5050447;28;20036;-68
2023/07/31 05:34:27;;;;;;;11.05;3.88;;;;;;;-146.27;100.00;82410.31;5059599;28;20056;-67
2023/07/31 05:36:53;;;;;;;7.50;3.83;;;;;;;-146.27;100.00;82436.41;5058833;28;20017;-67
2023/07/31 05:39:19;;;;;;;8.48;3.47;;;;;;;-146.27;100.00;82376.16;5048386;28;20067;-68
2023/07/31 05:41:45;;;;;;;10.40;3.33;;;;;;;-146.27;100.00;82376.16;5056078;28;20025;-68
2023/07/31 05:44:10;;;;;;;6.25;3.58;;;;;;;-146.27;100.00;82402.25;5068864;28;20050;-68
2023/07/31 05:46:36;;;;;;;8.52;3.47;;;;;;;-146.27;100.00;82398.25;5061571;28;20475;-67
2023/07/31 05:49:01;;;;;;;9.40;3.08;;;;;;;-146.27;100.00;82364.09;5045334;28;20064;-67
2023/07/31 05:51:27;;;;;;;7.78;3.15;;;;;;;-146.27;100.00;82404.28;5057083;28;20025;-67
2023/07/31 05:53:54;;;;;;;9.68;2.95;;;;;;;-146.27;100.00;82374.13;5060152;28;20492;-69
2023/07/31 05:56:20;;;;;;;7.47;2.38;;;;;;;-146.27;100.00;82378.16;5069865;28;20021;-69
2023/07/31 05:58:45;;;;;;;8.80;2.45;;;;;;;-146.27;100.00;82394.22;5061342;28;20079;-68
2023/07/31 06:01:10;;;;;;;6.00;2.20;;;;;;;-146.27;100.00;82384.19;5050649;28;20029;-69
2023/07/31 06:03:36;;;;;;;8.52;2.45;;;;;;;-146.27;100.00;82376.16;5054608;28;20024;-70
2023/07/31 06:06:01;;;;;;;6.70;2.30;;;;;;;-146.27;100.00;82358.06;5055245;28;20032;-69
2023/07/31 06:08:26;;;;;;;5.18;2.28;;;;;;;-146.27;100.00;82366.09;5054072;28;20049;-69
2023/07/31 06:10:52;;;;;;;4.70;2.00;;;;;;;-146.27;100.00;82396.25;5056887;28;20546;-69
2023/07/31 06:13:17;;;;;;;5.25;2.60;;;;;;;-146.27;100.00;82360.09;5062967;28;20504;-70
2023/07/31 06:15:43;;;;;;;6.65;1.77;;;;;;;-146.27;100.00;82315.88;5059886;28;20074;-69
2023/07/31 06:18:08;;;;;;;2.67;1.60;;;;;;;-146.27;100.00;82344.00;5062626;28;20037;-68
2023/07/31 06:20:34;;;;;;;4.80;1.38;;;;;;;-146.27;100.00;82331.97;5049681;28;20040;-69
2023/07/31 06:22:59;;;;;;;4.13;1.58;;;;;;;-146.27;100.00;82299.81;5051957;28;20017;-69
2023/07/31 06:25:25;;;;;;;2.13;1.35;;;;;;;-146.27;100.00;82331.97;5063705;28;20155;-68
2023/07/31 06:27:51;;;;;;;3.97;1.27;;;;;;;-146.27;100.00;82327.94;5049998;28;20024;-68
2023/07/31 06:30:16;;;;;;;1.77;1.05;;;;;;;-146.27;100.00;82275.72;5054118;28;20017;-69
2023/07/31 06:32:42;;;;;;;1.35;1.15;;;;;;;-146.27;100.00;82295.81;5060464;28;20020;-69
2023/07/31 06:35:08;;;;;;;4.97;1.50;;;;;;;-146.27;100.00;82259.66;5052474;28;20082;-69
2023/07/31 06:37:33;;;;;;;2.17;1.20;;;;;;;-146.27;100.00;82271.69;5059514;28;20063;-69
2023/07/31 06:39:59;;;;;;;1.90;1.20;;;;;;;-146.27;100.00;82279.72;5064298;28;20028;-69
2023/07/31 06:42:24;;;;;;;3.53;1.30;;;;;;;-146.27;100.00;82307.84;5071026;28;20028;-69
2023/07/31 06:44:49;;;;;;;4.40;1.30;;;;;;;-146.27;100.00;82269.69;5059272;28;20044;-69
2023/07/31 06:47:15;;;;;;;2.55;1.20;;;;;;;-146.27;100.00;82259.66;5052118;28;20088;-68
2023/07/31 06:49:40;;;;;;;5.20;1.20;;;;;;;-146.27;100.00;82275.72;5052839;28;20025;-68
2023/07/31 06:52:06;;;;;;;2.30;1.10;;;;;;;-146.27;100.00;82299.81;5056313;28;20385;-68
2023/07/31 06:54:31;;;;;;;2.67;0.80;;;;;;;-146.27;100.00;82275.72;5067348;28;20395;-69
2023/07/31 06:56:57;;;;;;;1.80;1.00;;;;;;;-146.27;100.00;82259.66;5054382;28;20024;-69
2023/07/31 06:59:22;;;;;;;1.83;1.02;;;;;;;-146.27;100.00;82311.88;5052719;28;20404;-68
2023/07/31 07:01:48;;;;;;;2.20;0.88;;;;;;;-146.27;100.00;82299.81;5054204;28;20075;-69
2023/07/31 07:04:14;;;;;;;2.10;1.10;;;;;;;-146.27;100.00;82227.50;5052793;28;20116;-69
2023/07/31 07:06:39;;;;;;;2.10;1.02;;;;;;;-146.27;100.00;82239.56;5052322;28;20461;-69
2023/07/31 07:09:05;;;;;;;1.83;1.08;;;;;;;-146.27;100.00;82195.38;5056499;28;20059;-68
2023/07/31 07:11:30;;;;;;;3.10;0.98;;;;;;;-146.27;100.00;82239.56;5071575;28;20052;-69
2023/07/31 07:13:56;;;;;;;2.38;0.82;;;;;;;-146.27;100.00;82275.72;5066848;28;20098;-68
2023/07/31 07:16:21;;;;;;;1.35;0.73;;;;;;;-146.27;100.00;82255.63;5060708;28;20027;-68
2023/07/31 07:18:47;;;;;;;4.18;1.10;;;;;;;-146.27;100.00;82249.59;5053825;28;20032;-69
2023/07/31 07:21:15;;;;;;;1.08;0.70;;;;;;;-146.27;100.00;82249.59;5051101;28;20025;-69
2023/07/31 07:23:42;;;;;;;1.63;0.52;;;;;;;-146.27;100.00;82287.75;5052302;28;20048;-69
2023/07/31 07:26:08;;;;;;;2.63;0.60;;;;;;;-146.27;100.00;82251.59;5070066;28;20024;-69
2023/07/31 07:28:33;;;;;;;1.10;0.60;;;;;;;-146.27;100.00;82267.69;5078597;28;20356;-68
2023/07/31 07:30:58;;;;;;;1.67;0.52;;;;;;;-146.27;100.00;82205.41;5079065;28;20460;-69
2023/07/31 07:33:24;;;;;;;1.95;1.55;;;;;;;-146.27;100.00;82261.66;5066974;28;20044;-69
2023/07/31 07:35:49;;;;;;;0.70;0.60;;;;;;;-146.27;100.00;82223.47;5054303;28;20021;-70
2023/07/31 07:38:19;;;;;;;1.23;0.70;;;;;;;-146.27;100.00;82251.59;5062840;28;20020;-68
2023/07/31 07:40:44;;;;;;;1.63;0.70;;;;;;;-146.27;100.00;82243.56;5071979;28;20036;-69
2023/07/31 07:43:10;;;;;;;2.35;0.82;;;;;;;-146.27;100.00;82195.38;5063685;28;20066;-68
2023/07/31 07:45:35;;;;;;;2.22;1.23;;;;;;;-146.27;100.00;82179.28;5056442;28;20111;-68
2023/07/31 07:48:00;;;;;;;2.10;0.90;;;;;;;-146.27;100.00;82203.41;5054087;28;20039;-68
2023/07/31 07:50:26;;;;;;;2.50;1.10;;;;;;;-146.27;100.00;82183.31;5061962;28;20033;-69
2023/07/31 07:52:51;;;;;;;2.30;0.93;;;;;;;-146.27;100.00;82185.31;5051874;28;20071;-68
2023/07/31 07:55:17;;;;;;;1.95;1.20;;;;;;;-146.27;100.00;82179.28;5050511;28;20492;-69
2023/07/31 07:57:44;;;;;;;3.67;1.00;;;;;;;-146.27;100.00;82149.16;5049924;28;20047;-69
2023/07/31 08:00:10;;;;;;;4.03;1.60;;;;;;;-146.27;100.00;82175.28;5054642;28;20025;-68
2023/07/31 08:02:35;;;;;;;4.18;1.80;;;;;;;-146.27;100.00;82167.25;5051815;28;20017;-69
2023/07/31 08:05:01;;;;;;;8.45;1.90;;;;;;;-146.27;100.00;82139.13;5051946;28;20046;-69
2023/07/31 08:07:26;;;;;;;5.13;1.98;;;;;;;-146.27;100.00;82171.25;5051580;28;20464;-69
2023/07/31 08:09:52;;;;;;;3.58;1.88;;;;;;;-146.27;100.00;82173.28;5051446;28;20021;-68
2023/07/31 08:12:17;;;;;;;6.65;2.28;;;;;;;-146.27;100.00;82125.06;5050664;28;20457;-68
2023/07/31 08:14:43;;;;;;;14.50;3.70;;;;;;;-146.27;100.00;82127.06;5051312;28;20082;-69
2023/07/31 08:17:09;;;;;;;13.45;3.22;;;;;;;-146.27;100.00;82133.09;5049752;28;20115;-68
2023/07/31 08:19:34;;;;;;;16.90;3.63;;;;;;;-146.27;100.00;82187.31;5057499;28;20065;-68
2023/07/31 08:21:59;;;;;;;14.73;4.28;;;;;;;-146.27;100.00;82123.06;5063687;28;20036;-69
2023/07/31 08:24:25;;;;;;;20.48;4.65;;;;;;;-146.27;100.00;82070.81;5053540;28;20107;-70
2023/07/31 08:26:50;;;;;;;21.20;3.97;;;;;;;-146.27;100.00;82109.00;5050274;28;20080;-69
2023/07/31 08:29:15;;;;;;;17.00;3.75;;;;;;;-146.27;100.00;82066.81;5063814;28;20468;-68
2023/07/31 08:31:41;;;;;;;20.33;4.00;;;;;;;-146.27;100.00;82082.88;5061689;28;20043;-69
2023/07/31 08:34:06;;;;;;;22.20;4.93;;;;;;;-146.27;100.00;82068.81;5070252;28;20024;-68
2023/07/31 08:36:32;;;;;;;21.20;4.30;;;;;;;-146.27;100.00;82149.16;5069594;28;20499;-68
2023/07/31 08:38:57;;;;;;;27.40;3.78;;;;;;;-146.27;100.00;82100.97;5069864;28;20112;-68
2023/07/31 08:41:23;;;;;;;23.75;4.18;;;;;;;-146.27;100.00;82082.88;5063439;28;20024;-70
2023/07/31 08:43:49;;;;;;;18.33;3.60;;;;;;;-146.27;100.00;82090.91;5049162;28;20682;-68
2023/07/31 08:46:15;;;;;;;20.52;3.58;;;;;;;-146.27;100.00;82086.91;5060561;28;20400;-68
2023/07/31 08:48:42;;;;;;;21.95;3.95;;;;;;;-146.27;100.00;82022.63;5054661;28;20029;-69
2023/07/31 08:51:10;;;;;;;13.07;3.50;;;;;;;-146.27;100.00;82066.81;5050207;28;20147;-69
2023/07/31 08:53:35;;;;;;;19.40;3.60;;;;;;;-146.27;100.00;82078.84;5048878;28;20025;-68
2023/07/31 08:56:02;;;;;;;25.08;4.57;;;;;;;-146.27;100.00;82066.81;5049977;28;20025;-68
2023/07/31 08:58:32;;;;;;;23.08;4.50;;;;;;;-146.27;100.00;82026.63;5049568;28;20023;-68
2023/07/31 09:00:58;;;;;;;32.35;5.25;;;;;;;-146.27;100.00;82024.63;5048446;28;20029;-70
2023/07/31 09:03:26;;;;;;;21.38;5.20;;;;;;;-146.27;100.00;82062.78;5053077;28;20116;-68
2023/07/31 09:05:53;;;;;;;23.30;4.38;;;;;;;-146.27;100.00;82086.91;5050004;28;20029;-68
2023/07/31 09:08:23;;;;;;;26.98;4.85;;;;;;;-146.27;100.00;82026.63;5050324;28;20646;-68
2023/07/31 09:10:51;;;;;;;29.30;4.47;;;;;;;-146.27;100.00;82026.63;5050051;28;20044;-70
2023/07/31 09:13:17;;;;;;;16.52;4.05;;;;;;;-146.27;100.00;82006.53;5059354;28;20028;-68
2023/07/31 09:15:45;;;;;;;29.33;5.05;;;;;;;-146.27;100.00;81982.44;5057877;28;20103;-69
2023/07/31 09:18:11;;;;;;;25.52;4.80;;;;;;;-146.27;100.00;81994.50;5052574;28;20032;-69
2023/07/31 09:20:37;;;;;;;24.33;4.50;;;;;;;-146.27;100.00;82004.53;5060095;28;20102;-67
2023/07/31 09:23:10;;;;;;;15.23;3.40;;;;;;;-146.27;100.00;82018.59;5067614;28;20025;-70
2023/07/31 09:25:39;;;;;;;18.98;4.05;;;;;;;-146.27;100.00;82042.69;5071110;28;20102;-68
2023/07/31 09:28:09;;;;;;;19.08;3.83;;;;;;;-146.27;100.00;82000.53;5064578;28;20499;-69
2023/07/31 09:30:51;;;;;;;21.02;4.35;;;;;;;-146.27;100.00;81958.34;5064555;28;20051;-68
2023/07/31 09:33:18;;;;;;;22.38;3.15;;;;;;;-146.27;100.00;81998.50;5057084;28;20066;-68
2023/07/31 09:35:44;;;;;;;16.75;4.63;;;;;;;-146.27;100.00;82006.53;5060380;28;20021;-68
2023/07/31 09:38:14;;;;;;;15.63;4.13;;;;;;;-146.27;100.00;81958.34;5085309;28;20025;-69
2023/07/31 09:40:41;;;;;;;17.10;3.28;;;;;;;-146.27;100.00;82008.56;5055303;28;20020;-69
2023/07/31 09:43:11;;;;;;;22.73;4.15;;;;;;;-146.27;100.00;81974.41;5051322;28;20063;-68
2023/07/31 09:45:39;;;;;;;12.50;4.00;;;;;;;-146.27;100.00;81996.50;5077189;28;20029;-67
2023/07/31 09:48:17;;;;;;;14.00;3.60;;;;;;;-146.27;100.00;81962.34;5058574;28;20036;-70
2023/07/31 09:50:46;;;;;;;11.27;2.78;;;;;;;-146.27;100.00;81928.22;5068288;28;20032;-68
2023/07/31 09:53:16;;;;;;;15.95;4.15;;;;;;;-146.27;100.00;81926.22;5081530;28;20028;-69
2023/07/31 09:55:42;;;;;;;18.25;3.38;;;;;;;-146.27;100.00;81928.22;5084076;28;20177;-68
2023/07/31 09:58:10;;;;;;;18.48;4.20;;;;;;;-146.27;100.00;81916.16;5078392;28;20047;-70
2023/07/31 10:00:35;;;;;;;13.75;3.17;;;;;;;-146.27;100.00;81948.31;5068141;28;20025;-69
2023/07/31 10:03:05;;;;;;;12.50;2.90;;;;;;;-146.27;100.00;81982.44;5061343;28;20397;-69
2023/07/31 10:05:35;;;;;;;19.52;3.97;;;;;;;-146.27;100.00;81946.28;5079763;28;20032;-70
2023/07/31 10:08:00;;;;;;;15.40;3.53;;;;;;;-146.27;100.00;81970.41;5076559;28;20559;-68
2023/07/31 10:10:27;;;;;;;12.32;2.95;;;;;;;-146.27;100.00;81950.31;5080168;28;20025;-69
2023/07/31 10:12:54;;;;;;;21.02;3.50;;;;;;;-146.27;100.00;81920.19;5065984;28;20024;-69
2023/07/31 10:15:20;;;;;;;9.98;3.28;;;;;;;-146.27;100.00;81938.25;5080055;28;20388;-69
2023/07/31 10:17:50;;;;;;;15.23;3.40;;;;;;;-146.27;100.00;81817.75;5056633;28;20793;-69
2023/07/31 10:20:16;;;;;;;15.25;3.47;;;;;;;-146.27;100.00;81918.16;5069004;28;20036;-69
2023/07/31 10:22:43;;;;;;;16.08;3.60;;;;;;;-146.27;100.00;81902.09;5069788;28;20320;-67
2023/07/31 10:25:09;;;;;;;13.93;3.17;;;;;;;-146.27;100.00;81906.13;5093774;28;20115;-66
2023/07/31 10:27:42;;;;;;;20.30;3.92;;;;;;;-146.27;100.00;81926.22;5065251;28;20609;-68
2023/07/31 10:30:19;;;;;;;20.57;3.90;;;;;;;-146.27;100.00;81934.25;5063646;28;20431;-67
2023/07/31 10:32:45;;;;;;;12.15;3.05;;;;;;;-146.27;100.00;81886.03;5070676;28;20326;-69
2023/07/31 10:35:11;;;;;;;15.57;3.03;;;;;;;-146.27;100.00;81849.88;5076571;28;20024;-68
2023/07/31 10:37:38;;;;;;;17.80;3.92;;;;;;;-146.27;100.00;81825.78;5066512;28;20051;-69
2023/07/31 10:40:06;;;;;;;22.83;3.33;;;;;;;-146.27;100.00;81853.91;5071216;28;20032;-67
2023/07/31 10:42:38;;;;;;;19.48;3.25;;;;;;;-146.27;100.00;81890.06;5076149;28;20103;-68
2023/07/31 10:45:05;;;;;;;18.13;3.88;;;;;;;-146.27;100.00;81898.09;5080579;28;20024;-67
2023/07/31 10:47:36;;;;;;;19.63;4.18;;;;;;;-146.27;100.00;81833.81;5083577;28;20528;-67
2023/07/31 10:50:35;;;;;;;17.00;3.35;;;;;;;-146.27;100.00;81898.09;5074814;28;20366;-68
2023/07/31 10:53:08;;;;;;;11.65;3.50;;;;;;;-146.27;100.00;81861.94;5076385;28;20496;-68
2023/07/31 10:55:47;;;;;;;14.73;2.85;;;;;;;-146.27;100.00;81865.94;5060398;28;20024;-68
2023/07/31 10:58:14;;;;;;;17.40;3.30;;;;;;;-146.27;100.00;81857.91;5061869;28;20031;-68
2023/07/31 11:00:44;;;;;;;16.17;3.67;;;;;;;-146.27;100.00;81871.97;5077889;28;20024;-67